Portada
METAR-TAF:

METAR-TAF

Aeroports :

Roberval, Quebec, Canadà

latitud: 48-31N, longitud: 072-16W, altitud: 179 m

Observació

L'informe es va fer fa 53 minuts, a les 02:00 UTC
Vent calma
Temperatura -1°C
Humitat 100%
Pressió 1017 hPa
Visibilitat: 4.8 km
Cel cobert a una alçada de 3000 ft
neu

METAR: CYRJ 270200Z 00000KT 3SM -SN OVC030 M01/M01 A3003 RMK SC8 /S01/ SLP180

Hora: 22:53 (02:53 UTC)

Pronòstic

L'informe es va fer fa 1 hora i 41 minuts, a les 01:12 UTC
Pronòstic vàlid del 27 a les 01 UTC al 27 a les 02 UTC
Vent 3 kt amb direcció variable
Visibilitat: 3.2 km
Cel cobert a una alçada de 2000 ft
neu
Temporalment
l' 27 a les 01 UTC al 27 a les 02 UTC
Visibilitat: 9.7 km
Cel cobert a una alçada de 3000 ft
neu

TAF: CYRJ 270112Z 2701/2702 VRB03KT 2SM -SN OVC020 TEMPO 2701/2702 6SM -SN OVC030 RMK NXT FCST WILL BE ISSUED AT 271145Z

Observacions i pronòstics meteorològics de més de 4000 aeroports (METAR i TAF).

Les estacions disponibles són els punts grocs i vermells al mapa.

Posi el ratolí al punt desitjat per veure el nom de l'estació.

Feu clic per veure les observacions i els pronòstics meteorològics.

Per canviar el mapa: feu clic els botons verds amb una creu de color negre per apropar; al botó verd amb un guió per allunyar la imatge; o en les fletxes verdes per a mapes adjacents.


METAR-TAF: